Time;durP1;ratioP1;P1;durP2;ratioP2;P2;SDS_P1;SDS_P2;PMS_P1;PMS_P2;Temp;Humidity;BMP_temperature;BMP_pressure;BME280_temperature;BME280_humidity;BME280_pressure;Samples;Min_cycle;Max_cycle;Signal;HPM_P1;HPM_P2
2022/04/30 00:01:02;;;;;;;4.93;1.97;;;;;;;10.02;67.45;100391.78;1713278;82;21192;-50
2022/04/30 00:03:28;;;;;;;6.60;1.60;;;;;;;10.01;68.12;100389.56;1721540;82;21749;-50
2022/04/30 00:05:56;;;;;;;5.90;2.57;;;;;;;10.02;68.42;100387.75;1718139;82;21089;-50
2022/04/30 00:08:22;;;;;;;7.10;2.00;;;;;;;10.05;68.85;100393.00;1726881;82;21026;-49
2022/04/30 00:10:50;;;;;;;6.33;1.67;;;;;;;10.07;69.26;100389.33;1721491;80;21097;-49
2022/04/30 00:13:17;;;;;;;5.37;1.40;;;;;;;10.10;69.84;100391.04;1723644;82;21344;-49
2022/04/30 00:15:44;;;;;;;3.63;1.53;;;;;;;10.11;70.10;100387.42;1725874;82;21438;-49
2022/04/30 00:18:11;;;;;;;6.10;1.80;;;;;;;10.10;70.42;100385.19;1724080;82;20952;-50
2022/04/30 00:20:38;;;;;;;3.98;2.12;;;;;;;10.10;70.73;100384.31;1722401;82;21122;-50
2022/04/30 00:23:05;;;;;;;7.27;2.23;;;;;;;10.09;71.06;100374.48;1721429;82;21124;-50
2022/04/30 00:25:32;;;;;;;3.90;1.60;;;;;;;10.08;71.36;100373.60;1721731;82;21497;-50
2022/04/30 00:27:59;;;;;;;3.07;1.40;;;;;;;10.07;71.75;100370.50;1721118;82;22489;-49
2022/04/30 00:30:25;;;;;;;3.83;1.33;;;;;;;10.07;72.12;100375.87;1702473;82;21667;-49
2022/04/30 00:32:53;;;;;;;4.03;1.30;;;;;;;10.08;72.49;100374.07;1719313;82;21046;-50
2022/04/30 00:35:22;;;;;;;2.70;1.10;;;;;;;10.06;72.83;100372.77;1723920;82;21097;-51
2022/04/30 00:37:49;;;;;;;1.50;0.97;;;;;;;10.08;73.22;100371.38;1722859;82;21057;-50
2022/04/30 00:40:16;;;;;;;3.83;0.90;;;;;;;10.06;73.45;100372.77;1725370;82;21138;-50
2022/04/30 00:42:43;;;;;;;1.63;0.70;;;;;;;10.07;73.78;100365.13;1716725;82;21536;-50
2022/04/30 00:45:10;;;;;;;1.83;0.87;;;;;;;10.09;73.88;100364.61;1719656;82;21514;-49
2022/04/30 00:47:37;;;;;;;2.13;0.80;;;;;;;10.10;73.88;100362.80;1725215;82;21444;-50
2022/04/30 00:50:06;;;;;;;2.60;0.80;;;;;;;10.11;74.07;100360.05;1717405;82;21443;-50
2022/04/30 00:52:32;;;;;;;1.40;0.80;;;;;;;10.12;74.32;100352.36;1723177;82;21447;-50
2022/04/30 00:54:59;;;;;;;1.83;0.90;;;;;;;10.13;74.44;100353.25;1721178;82;20915;-49
2022/04/30 00:57:27;;;;;;;1.97;1.00;;;;;;;10.12;74.51;100352.36;1695264;82;20982;-49
2022/04/30 01:00:00;;;;;;;1.83;0.87;;;;;;;10.10;74.67;100356.07;1727893;82;20934;-50
2022/04/30 01:02:32;;;;;;;2.00;0.90;;;;;;;10.08;74.80;100350.73;1721673;81;21304;-49
2022/04/30 01:05:10;;;;;;;2.00;0.77;;;;;;;10.07;74.91;100345.41;1720138;82;22159;-53
2022/04/30 01:07:39;;;;;;;1.83;0.80;;;;;;;10.05;75.10;100343.23;1720460;82;21237;-50
2022/04/30 01:10:08;;;;;;;2.93;0.97;;;;;;;10.05;75.37;100345.92;1723329;80;21102;-49
2022/04/30 01:12:34;;;;;;;2.83;0.80;;;;;;;10.01;75.52;100340.27;1721682;82;21049;-49
2022/04/30 01:15:04;;;;;;;1.27;0.80;;;;;;;9.99;75.83;100340.31;1718717;82;21212;-49
2022/04/30 01:17:30;;;;;;;3.27;0.90;;;;;;;9.99;75.98;100336.75;1719098;82;21666;-49
2022/04/30 01:19:57;;;;;;;2.47;1.33;;;;;;;9.98;76.15;100330.95;1717261;82;21051;-50
2022/04/30 01:22:34;;;;;;;1.83;0.93;;;;;;;9.97;76.32;100329.20;1726122;82;21101;-49
2022/04/30 01:25:04;;;;;;;2.60;1.03;;;;;;;9.96;76.48;100329.66;1723215;82;21058;-49
2022/04/30 01:27:30;;;;;;;1.50;1.00;;;;;;;9.95;76.60;100326.59;1723022;82;21014;-49
2022/04/30 01:30:00;;;;;;;2.40;0.90;;;;;;;9.93;76.72;100333.83;1717891;82;21154;-49
2022/04/30 01:38:02;;;;;;;2.50;0.82;;;;;;;9.93;77.29;100326.22;1721911;82;21034;-48
2022/04/30 01:40:29;;;;;;;2.63;0.83;;;;;;;9.92;77.49;100330.72;1725345;82;21142;-49
2022/04/30 01:43:01;;;;;;;3.67;0.70;;;;;;;9.92;77.67;100324.46;1729417;82;21136;-48
2022/04/30 01:45:28;;;;;;;0.98;0.70;;;;;;;9.91;77.66;100322.70;1686620;84;21014;-49
2022/04/30 01:47:56;;;;;;;0.83;0.60;;;;;;;9.90;77.81;100329.02;1721286;82;22065;-48
2022/04/30 01:50:23;;;;;;;1.40;0.70;;;;;;;9.89;77.93;100322.75;1720517;82;21666;-49
2022/04/30 01:52:49;;;;;;;1.30;0.70;;;;;;;9.91;78.02;100318.67;1720019;82;21054;-50
2022/04/30 01:55:16;;;;;;;1.07;0.70;;;;;;;9.90;78.08;100319.60;1722403;82;21109;-48
2022/04/30 01:57:43;;;;;;;2.77;0.80;;;;;;;9.90;78.03;100315.10;1718591;82;21526;-48
2022/04/30 02:00:14;;;;;;;2.67;0.80;;;;;;;9.87;77.86;100321.45;1719458;82;21109;-48
2022/04/30 02:02:45;;;;;;;1.77;0.90;;;;;;;9.79;77.90;100320.86;1725780;81;21073;-50
2022/04/30 02:05:13;;;;;;;1.93;0.80;;;;;;;9.72;78.04;100320.67;1724987;82;21621;-47
2022/04/30 02:08:06;;;;;;;1.40;0.70;;;;;;;9.69;78.22;100321.27;1726243;82;21809;-49
2022/04/30 02:10:35;;;;;;;1.50;0.60;;;;;;;9.67;78.38;100318.63;1623366;86;21093;-48
2022/04/30 02:13:06;;;;;;;1.63;0.60;;;;;;;9.66;78.57;100322.25;1637762;85;21077;-47
2022/04/30 02:15:40;;;;;;;0.60;0.47;;;;;;;9.67;78.77;100319.09;1692186;84;21110;-48
2022/04/30 02:18:10;;;;;;;0.95;0.57;;;;;;;9.68;78.88;100320.86;1668112;85;21086;-47
2022/04/30 02:20:38;;;;;;;1.27;0.50;;;;;;;9.69;79.03;100318.58;1641083;85;22182;-50
2022/04/30 02:23:05;;;;;;;1.30;0.80;;;;;;;9.72;79.10;100328.73;1668497;85;21587;-50
2022/04/30 02:25:32;;;;;;;1.03;0.80;;;;;;;9.76;78.75;100332.21;1670935;85;21110;-46
2022/04/30 02:28:04;;;;;;;1.75;0.90;;;;;;;9.72;78.37;100328.73;1670710;85;21082;-49
2022/04/30 02:30:29;;;;;;;2.27;0.90;;;;;;;9.71;78.02;100328.33;1686545;83;21112;-53
2022/04/30 02:32:58;;;;;;;1.73;1.00;;;;;;;9.70;77.62;100325.22;1726477;82;21576;-48
2022/04/30 02:35:28;;;;;;;1.63;1.33;;;;;;;9.70;77.57;100323.88;1736807;82;21065;-48
2022/04/30 02:37:56;;;;;;;2.67;0.80;;;;;;;9.71;77.54;100320.72;1725059;82;21093;-50
2022/04/30 02:40:24;;;;;;;2.17;0.83;;;;;;;9.72;77.66;100326.05;1734985;82;21108;-48
2022/04/30 02:42:52;;;;;;;2.47;0.87;;;;;;;9.74;77.80;100321.97;1728223;82;21315;-48
2022/04/30 02:45:20;;;;;;;1.67;0.90;;;;;;;9.77;77.94;100324.56;1726209;82;21935;-47
2022/04/30 02:47:53;;;;;;;2.02;0.90;;;;;;;9.77;78.08;100324.09;1724778;82;21512;-48
2022/04/30 02:50:17;;;;;;;1.45;0.80;;;;;;;9.79;78.20;100322.67;1667975;83;21079;-47
2022/04/30 02:52:44;;;;;;;1.52;0.90;;;;;;;9.79;78.25;100324.02;1724133;82;21081;-51
2022/04/30 02:55:11;;;;;;;1.25;0.80;;;;;;;9.79;78.37;100329.39;1727610;82;21551;-48
2022/04/30 03:00:39;;;;;;;3.72;0.70;;;;;;;9.85;78.46;100348.90;1727849;82;21034;-48
2022/04/30 03:03:29;;;;;;;0.98;0.70;;;;;;;9.85;78.20;100342.17;1724088;82;21022;-48
2022/04/30 03:05:55;;;;;;;1.40;0.80;;;;;;;9.81;77.51;100351.27;1719838;82;20935;-48
2022/04/30 03:08:25;;;;;;;3.62;0.80;;;;;;;9.82;77.29;100349.45;1707642;82;22261;-47
2022/04/30 03:10:54;;;;;;;2.47;0.90;;;;;;;9.82;77.10;100351.69;1710387;81;21126;-46
2022/04/30 03:13:21;;;;;;;2.17;1.00;;;;;;;9.81;77.06;100353.08;1714327;82;20915;-48
2022/04/30 03:15:53;;;;;;;1.22;0.75;;;;;;;9.80;76.95;100354.88;1714571;82;21504;-48
2022/04/30 03:23:51;;;;;;;1.00;0.70;;;;;;;9.79;76.53;100351.78;1710227;82;21034;-48
2022/04/30 03:26:20;;;;;;;1.10;0.78;;;;;;;9.79;76.38;100350.44;1719282;82;21536;-47
2022/04/30 03:28:46;;;;;;;1.60;0.80;;;;;;;9.78;76.26;100343.80;1713909;82;21666;-48
2022/04/30 03:31:15;;;;;;;0.95;0.65;;;;;;;9.79;76.05;100346.87;1717471;82;21516;-48
2022/04/30 03:33:43;;;;;;;0.90;0.67;;;;;;;9.80;76.03;100342.78;1711365;82;21023;-49
2022/04/30 03:36:12;;;;;;;0.80;0.70;;;;;;;9.82;75.90;100341.39;1711451;82;21720;-48
2022/04/30 03:38:37;;;;;;;4.50;0.80;;;;;;;9.83;76.03;100341.80;1713297;82;21074;-48
2022/04/30 03:41:06;;;;;;;1.82;0.80;;;;;;;9.83;76.17;100333.27;1709316;82;20979;-48
2022/04/30 03:43:32;;;;;;;1.13;0.70;;;;;;;9.83;76.38;100340.00;1713987;82;21681;-48
2022/04/30 03:45:59;;;;;;;5.57;0.80;;;;;;;9.86;76.46;100347.09;1717732;82;20988;-48
2022/04/30 03:48:25;;;;;;;2.22;0.80;;;;;;;9.87;76.88;100349.69;1710303;82;21100;-47
2022/04/30 03:50:53;;;;;;;1.00;0.83;;;;;;;9.86;77.07;100350.66;1710472;82;21097;-47
2022/04/30 03:53:20;;;;;;;0.82;0.70;;;;;;;9.86;77.41;100352.47;1710145;82;21112;-47
2022/04/30 03:55:46;;;;;;;1.53;0.67;;;;;;;9.85;77.72;100350.70;1713615;82;20994;-48
2022/04/30 03:58:13;;;;;;;1.22;0.60;;;;;;;9.87;77.92;100355.53;1711719;82;21081;-49
2022/04/30 04:00:39;;;;;;;1.47;0.77;;;;;;;9.88;78.14;100350.11;1712950;82;21493;-47
2022/04/30 04:03:06;;;;;;;1.07;0.70;;;;;;;9.92;78.31;100352.70;1711199;81;21303;-46
2022/04/30 04:05:33;;;;;;;1.00;0.80;;;;;;;9.93;78.35;100354.46;1710683;82;21078;-46
2022/04/30 04:08:00;;;;;;;3.00;0.80;;;;;;;9.91;78.48;100357.20;1709304;82;21047;-47
2022/04/30 04:10:27;;;;;;;2.08;0.82;;;;;;;9.87;78.67;100359.11;1708692;82;21050;-48
2022/04/30 04:17:37;;;;;;;1.00;0.65;;;;;;;9.80;78.31;100352.20;1713128;82;21553;-48
2022/04/30 04:18:07;;;;;;;1.53;0.60;;;;;;;9.78;77.95;100356.73;1714567;82;21653;-48
2022/04/30 04:20:33;;;;;;;1.97;0.60;;;;;;;9.76;77.01;100347.88;1714091;82;21065;-47
2022/04/30 04:23:00;;;;;;;0.78;0.50;;;;;;;9.81;76.58;100350.39;1710657;82;21639;-48
2022/04/30 04:28:11;;;;;;;;;;;;;;;9.90;75.86;100350.52;1719216;82;21054;-47
2022/04/30 04:30:39;;;;;;;2.17;0.50;;;;;;;9.92;75.25;100352.23;1710811;82;20388;-47
2022/04/30 04:33:05;;;;;;;0.70;0.50;;;;;;;9.92;74.89;100349.55;1711811;82;21425;-48
2022/04/30 04:35:32;;;;;;;0.97;0.50;;;;;;;9.93;74.52;100340.55;1710417;82;21062;-49
2022/04/30 04:38:00;;;;;;;0.70;0.47;;;;;;;9.95;73.64;100347.22;1716547;82;21740;-47
2022/04/30 04:40:26;;;;;;;0.40;0.40;;;;;;;9.97;73.32;100349.36;1715775;82;21548;-47
2022/04/30 04:42:52;;;;;;;0.60;0.30;;;;;;;9.99;73.21;100347.51;1712429;82;21069;-47
2022/04/30 04:45:18;;;;;;;0.50;0.30;;;;;;;10.04;73.14;100344.17;1710054;82;21672;-47
2022/04/30 04:47:49;;;;;;;0.30;0.30;;;;;;;10.08;72.40;100345.36;1709268;82;21556;-47
2022/04/30 04:50:13;;;;;;;0.67;0.27;;;;;;;10.12;72.90;100344.30;1708498;82;22556;-47
2022/04/30 04:52:41;;;;;;;0.53;0.40;;;;;;;10.21;73.06;100341.77;1711144;82;21460;-47
2022/04/30 04:55:08;;;;;;;2.02;0.50;;;;;;;10.27;73.62;100342.91;1712979;82;21520;-47
2022/04/30 04:57:36;;;;;;;1.27;0.50;;;;;;;10.33;73.93;100346.70;1709116;82;20966;-49
2022/04/30 05:00:08;;;;;;;1.92;0.50;;;;;;;10.40;74.68;100345.53;1713503;82;21038;-49
2022/04/30 05:02:36;;;;;;;0.40;0.40;;;;;;;10.45;75.09;100345.37;1717205;82;21143;-49
2022/04/30 05:05:03;;;;;;;0.50;0.40;;;;;;;10.48;74.95;100358.22;1712668;81;21106;-48
2022/04/30 05:07:30;;;;;;;1.15;0.40;;;;;;;10.50;75.00;100360.86;1716771;82;21527;-49
2022/04/30 05:09:56;;;;;;;0.40;0.40;;;;;;;10.54;74.63;100362.05;1712043;82;21050;-48
2022/04/30 05:12:24;;;;;;;1.40;0.45;;;;;;;10.55;74.10;100362.89;1712622;82;21431;-47
2022/04/30 05:14:53;;;;;;;0.55;0.40;;;;;;;10.56;73.85;100366.88;1716103;82;21128;-48
2022/04/30 05:17:21;;;;;;;0.60;0.50;;;;;;;10.59;72.95;100368.58;1710000;82;21430;-48
2022/04/30 05:19:48;;;;;;;0.70;0.40;;;;;;;10.61;72.41;100366.72;1712285;82;21030;-49
2022/04/30 05:22:14;;;;;;;0.62;0.50;;;;;;;10.63;71.77;100371.58;1713525;82;21133;-48
2022/04/30 05:24:41;;;;;;;0.78;0.50;;;;;;;10.66;71.80;100377.30;1712871;82;21411;-49
2022/04/30 05:29:49;;;;;;;1.77;0.80;;;;;;;10.72;70.84;100366.31;1867654;75;22669;-48
2022/04/30 05:32:16;;;;;;;0.55;0.50;;;;;;;10.68;69.83;100365.54;1838037;77;21033;-46
2022/04/30 05:34:42;;;;;;;1.15;0.40;;;;;;;10.67;69.76;100363.78;1840289;77;21541;-48
2022/04/30 05:37:08;;;;;;;1.25;0.50;;;;;;;10.69;69.85;100365.95;1835178;77;21043;-47
2022/04/30 05:39:35;;;;;;;0.70;0.50;;;;;;;10.74;69.58;100367.98;1842912;77;21570;-47
2022/04/30 05:42:01;;;;;;;1.70;0.40;;;;;;;10.84;69.57;100371.20;1840037;77;21008;-50
2022/04/30 05:44:27;;;;;;;1.05;0.50;;;;;;;10.95;69.36;100367.62;1838613;77;21013;-49
2022/04/30 05:46:54;;;;;;;0.60;0.55;;;;;;;11.08;69.23;100369.33;1837850;77;21126;-49
2022/04/30 05:49:20;;;;;;;1.42;0.60;;;;;;;11.19;67.69;100372.48;1838678;77;21009;-47
2022/04/30 05:51:49;;;;;;;0.90;0.70;;;;;;;11.29;67.58;100369.81;1839098;77;21000;-48
2022/04/30 05:54:16;;;;;;;1.00;0.60;;;;;;;11.41;66.86;100375.15;1839627;77;21017;-49
2022/04/30 05:56:43;;;;;;;1.15;0.60;;;;;;;11.52;66.94;100376.47;1841425;77;20941;-48
2022/04/30 05:59:09;;;;;;;1.32;0.70;;;;;;;11.61;66.30;100370.69;1807998;77;21196;-51
2022/04/30 06:01:37;;;;;;;0.95;0.65;;;;;;;11.72;66.18;100385.06;1805684;77;21555;-48
2022/04/30 06:04:04;;;;;;;1.15;0.70;;;;;;;11.81;65.71;100371.22;1808219;77;21553;-48
2022/04/30 06:06:31;;;;;;;1.12;0.60;;;;;;;11.91;65.36;100375.75;1804748;77;21059;-50
2022/04/30 06:08:58;;;;;;;1.75;0.60;;;;;;;11.98;65.39;100375.41;1809517;77;21557;-48
2022/04/30 06:11:25;;;;;;;2.72;0.60;;;;;;;12.07;65.00;100365.55;1804639;77;21135;-50
2022/04/30 06:13:51;;;;;;;0.93;0.50;;;;;;;12.16;63.51;100363.39;1808471;77;21438;-50
2022/04/30 06:18:49;;;;;;;1.30;0.50;;;;;;;12.20;62.19;100354.19;1763636;79;23936;-51
2022/04/30 06:21:17;;;;;;;1.27;0.60;;;;;;;12.12;61.02;100359.47;1732636;81;21036;-48
2022/04/30 06:23:44;;;;;;;0.80;0.53;;;;;;;12.08;59.92;100356.48;1737330;81;22069;-47
2022/04/30 06:26:10;;;;;;;1.27;0.50;;;;;;;12.07;59.45;100361.98;1735456;81;21085;-49
2022/04/30 06:28:37;;;;;;;0.95;0.50;;;;;;;12.07;59.55;100357.46;1734089;81;21444;-49
2022/04/30 06:31:04;;;;;;;2.17;0.70;;;;;;;12.11;60.19;100360.88;1736386;81;21093;-47
2022/04/30 06:33:30;;;;;;;2.25;0.50;;;;;;;12.16;60.31;100356.17;1732977;80;21064;-48
2022/04/30 06:35:57;;;;;;;1.07;0.50;;;;;;;12.21;59.92;100358.17;1735185;81;21278;-51
2022/04/30 06:38:25;;;;;;;4.65;0.62;;;;;;;12.28;60.10;100358.30;1738540;81;21011;-49
2022/04/30 06:40:51;;;;;;;3.58;0.55;;;;;;;12.31;58.89;100359.52;1738126;81;21448;-50
2022/04/30 06:43:18;;;;;;;1.35;0.70;;;;;;;12.32;57.50;100359.05;1733178;81;21021;-50
2022/04/30 06:45:46;;;;;;;0.80;0.50;;;;;;;12.31;57.19;100365.39;1731190;81;21116;-47
2022/04/30 06:48:12;;;;;;;1.12;0.50;;;;;;;12.32;57.69;100370.72;1736330;80;22534;-50
2022/04/30 06:50:39;;;;;;;0.78;0.55;;;;;;;12.34;58.05;100370.16;1735720;81;21045;-51
2022/04/30 06:58:50;;;;;;;1.10;0.50;;;;;;;12.51;57.63;100374.78;1715339;81;20319;-50
2022/04/30 07:01:38;;;;;;;0.75;0.50;;;;;;;12.60;56.69;100368.95;1714351;83;21421;-50
2022/04/30 07:04:04;;;;;;;1.02;0.42;;;;;;;12.67;56.06;100372.27;1712296;82;20966;-49
2022/04/30 07:06:33;;;;;;;0.68;0.40;;;;;;;12.74;56.04;100366.50;1716904;82;21299;-48
2022/04/30 07:09:02;;;;;;;0.50;0.40;;;;;;;12.84;55.18;100361.54;1714019;82;21089;-51
2022/04/30 07:11:28;;;;;;;0.68;0.40;;;;;;;12.94;54.51;100370.05;1714272;82;21065;-51
2022/04/30 07:13:55;;;;;;;0.85;0.42;;;;;;;13.02;54.23;100363.80;1714484;83;21583;-50
2022/04/30 07:16:21;;;;;;;0.60;0.40;;;;;;;13.08;54.28;100361.70;1713333;83;21053;-51
2022/04/30 07:18:48;;;;;;;0.68;0.37;;;;;;;13.16;54.20;100359.53;1709433;83;21061;-50
2022/04/30 07:21:14;;;;;;;1.75;0.50;;;;;;;13.23;54.29;100361.45;1707551;83;21060;-52
2022/04/30 07:23:41;;;;;;;1.00;0.60;;;;;;;13.30;53.14;100363.36;1707653;83;21435;-52
2022/04/30 07:26:08;;;;;;;1.47;0.60;;;;;;;13.37;51.83;100363.45;1675563;85;21794;-50
2022/04/30 07:28:35;;;;;;;1.12;0.50;;;;;;;13.41;51.48;100367.30;1673841;85;21058;-50
2022/04/30 07:31:03;;;;;;;1.52;0.47;;;;;;;13.42;51.23;100358.71;1674288;83;21065;-52
2022/04/30 07:33:30;;;;;;;0.70;0.40;;;;;;;13.46;51.62;100361.16;1673421;85;21070;-50
2022/04/30 07:35:57;;;;;;;1.70;0.40;;;;;;;13.49;50.91;100356.97;1672520;85;21101;-50
2022/04/30 07:38:23;;;;;;;0.60;0.40;;;;;;;13.55;51.09;100353.06;1673408;85;23364;-51
2022/04/30 07:40:51;;;;;;;0.80;0.40;;;;;;;13.64;49.84;100344.48;1673481;85;21017;-49
2022/04/30 07:43:18;;;;;;;0.53;0.40;;;;;;;13.72;48.61;100350.37;1672229;85;21093;-51
2022/04/30 07:45:44;;;;;;;0.70;0.45;;;;;;;13.74;48.56;100344.41;1672963;85;21094;-50
2022/04/30 07:48:11;;;;;;;0.78;0.47;;;;;;;13.81;48.40;100346.31;1674025;85;21601;-50
2022/04/30 07:50:37;;;;;;;2.25;0.40;;;;;;;13.83;47.65;100347.12;1670212;85;21875;-50
2022/04/30 07:53:08;;;;;;;0.40;0.40;;;;;;;13.86;48.03;100346.97;1706205;83;22179;-50
2022/04/30 07:55:34;;;;;;;0.40;0.30;;;;;;;13.93;47.22;100344.33;1706129;83;21516;-49
2022/04/30 07:58:02;;;;;;;0.45;0.40;;;;;;;13.92;46.99;100338.52;1706557;83;21053;-49
2022/04/30 08:00:31;;;;;;;1.02;0.33;;;;;;;13.93;46.69;100345.20;1707679;83;21114;-52
2022/04/30 08:02:58;;;;;;;2.10;0.30;;;;;;;13.95;46.45;100345.14;1706208;83;21231;-52
2022/04/30 08:05:24;;;;;;;0.40;0.25;;;;;;;13.97;44.92;100345.42;1708213;83;21026;-52
2022/04/30 08:07:51;;;;;;;0.50;0.30;;;;;;;13.98;42.95;100344.95;1705018;83;21046;-50
2022/04/30 08:10:17;;;;;;;0.78;0.30;;;;;;;13.99;43.80;100335.41;1705537;83;21677;-50
2022/04/30 08:12:45;;;;;;;0.40;0.30;;;;;;;14.08;45.21;100335.39;1707126;83;21117;-52
2022/04/30 08:15:11;;;;;;;2.15;0.40;;;;;;;14.18;44.88;100331.72;1705349;83;21270;-50
2022/04/30 08:17:39;;;;;;;0.90;0.40;;;;;;;14.24;44.80;100328.20;1705229;83;21105;-50
2022/04/30 08:20:07;;;;;;;0.60;0.40;;;;;;;14.26;44.29;100333.05;1706428;83;21132;-53
2022/04/30 08:22:34;;;;;;;0.50;0.40;;;;;;;14.23;45.33;100331.86;1705296;83;21073;-51
2022/04/30 08:25:01;;;;;;;1.35;0.40;;;;;;;14.23;44.57;100330.50;1706227;83;21129;-52
2022/04/30 08:27:28;;;;;;;1.12;0.40;;;;;;;14.21;43.98;100328.34;1705865;83;21196;-50
2022/04/30 08:29:54;;;;;;;1.62;0.40;;;;;;;14.18;44.06;100333.08;1705890;83;21144;-50
2022/04/30 08:32:25;;;;;;;1.17;0.40;;;;;;;14.13;43.71;100323.83;1703724;83;21983;-51
2022/04/30 08:34:52;;;;;;;0.62;0.40;;;;;;;14.19;44.51;100319.45;1705519;83;21666;-50
2022/04/30 08:37:18;;;;;;;1.10;0.33;;;;;;;14.19;44.51;100319.45;1704481;83;21101;-49
2022/04/30 08:39:45;;;;;;;0.50;0.27;;;;;;;14.24;44.69;100320.07;1706315;83;21195;-50
2022/04/30 08:42:13;;;;;;;0.98;0.40;;;;;;;14.28;44.31;100314.90;1706326;82;21140;-51
2022/04/30 08:44:40;;;;;;;1.05;0.30;;;;;;;14.33;43.26;100314.16;1707613;83;21140;-50
2022/04/30 08:47:10;;;;;;;0.40;0.30;;;;;;;14.33;42.44;100314.16;1706092;83;21117;-49
2022/04/30 08:49:35;;;;;;;0.40;0.30;;;;;;;14.33;42.74;100310.57;1707712;83;21512;-49
2022/04/30 08:52:01;;;;;;;3.05;0.28;;;;;;;14.41;43.47;100310.18;1706531;83;21395;-49
2022/04/30 08:54:28;;;;;;;0.98;0.30;;;;;;;14.63;42.29;100314.31;1706173;82;21033;-50
2022/04/30 08:56:55;;;;;;;0.50;0.30;;;;;;;14.63;42.29;100314.31;1707220;83;21082;-51
2022/04/30 08:59:22;;;;;;;0.40;0.30;;;;;;;14.77;42.65;100310.84;1707043;83;21058;-52
2022/04/30 09:01:51;;;;;;;2.25;0.40;;;;;;;14.90;42.32;100308.30;1708282;83;20985;-49
2022/04/30 09:04:19;;;;;;;0.30;0.20;;;;;;;15.02;41.32;100311.19;1707764;83;21646;-51
2022/04/30 09:06:50;;;;;;;1.12;0.50;;;;;;;15.07;40.96;100307.72;1707065;83;21760;-51
2022/04/30 09:09:29;;;;;;;1.00;0.30;;;;;;;14.95;40.54;100304.38;1704950;82;21125;-51
2022/04/30 09:12:11;;;;;;;0.50;0.30;;;;;;;14.95;40.54;100304.38;1705243;83;21082;-49
2022/04/30 09:14:40;;;;;;;1.05;0.30;;;;;;;14.95;41.19;100298.08;1703978;82;21117;-53
2022/04/30 09:17:11;;;;;;;1.42;0.30;;;;;;;14.98;41.42;100305.54;1705955;83;21395;-52
2022/04/30 09:19:59;;;;;;;0.45;0.35;;;;;;;14.98;40.63;100301.47;1701724;83;21729;-50
2022/04/30 09:22:34;;;;;;;9.98;2.20;;;;;;;14.98;41.23;100306.89;1701806;84;20950;-51
2022/04/30 09:25:03;;;;;;;7.45;1.65;;;;;;;14.91;41.08;100296.50;1700687;83;20935;-51
2022/04/30 09:27:31;;;;;;;4.05;1.67;;;;;;;14.77;41.85;100297.30;1697641;83;21622;-50
2022/04/30 09:29:58;;;;;;;2.98;1.07;;;;;;;14.68;42.10;100304.59;1696476;83;21167;-51
2022/04/30 09:32:25;;;;;;;6.15;1.60;;;;;;;14.63;41.59;100302.63;1695663;83;21460;-50
2022/04/30 09:37:41;;;;;;;4.40;1.40;;;;;;;14.58;42.19;100303.34;1695983;83;21069;-52
2022/04/30 09:40:18;;;;;;;7.83;1.50;;;;;;;14.62;42.05;100295.46;1696168;83;21041;-51
2022/04/30 09:42:48;;;;;;;2.35;1.10;;;;;;;14.74;42.36;100295.63;1699520;83;22140;-50
2022/04/30 09:45:31;;;;;;;6.00;1.27;;;;;;;14.91;43.25;100293.30;1698160;83;21038;-51
2022/04/30 09:48:00;;;;;;;4.47;1.47;;;;;;;15.21;41.32;100300.64;1696875;83;20979;-51
2022/04/30 09:56:08;;;;;;;3.55;1.10;;;;;;;15.36;41.40;100290.23;1699636;83;20963;-50
2022/04/30 09:58:36;;;;;;;6.15;1.40;;;;;;;15.42;40.46;100286.67;1699608;83;20959;-51
2022/04/30 10:01:04;;;;;;;2.92;1.25;;;;;;;15.46;41.03;100289.60;1696892;82;21649;-52
2022/04/30 10:03:31;;;;;;;3.42;1.00;;;;;;;15.50;40.87;100293.86;1694039;83;21105;-52
2022/04/30 10:06:05;;;;;;;3.50;1.30;;;;;;;15.47;40.72;100295.91;1699700;82;20959;-51
2022/04/30 10:08:35;;;;;;;2.92;1.15;;;;;;;15.48;41.00;100290.36;1699204;82;21194;-51
2022/04/30 10:11:18;;;;;;;3.20;0.55;;;;;;;15.51;40.58;100298.33;1680815;83;20935;-52
2022/04/30 10:14:11;;;;;;;0.50;0.40;;;;;;;15.44;39.77;100298.79;1695861;82;21437;-51
2022/04/30 10:16:37;;;;;;;3.15;0.40;;;;;;;15.27;38.42;100299.79;1697674;83;20891;-52
2022/04/30 10:19:15;;;;;;;1.37;0.40;;;;;;;15.01;39.42;100297.24;1696464;83;21094;-52
2022/04/30 10:21:38;;;;;;;0.50;0.40;;;;;;;14.75;39.45;100297.38;1694457;83;21160;-52
2022/04/30 10:24:06;;;;;;;2.22;0.50;;;;;;;14.38;40.02;100302.61;1697008;83;21082;-51
2022/04/30 10:26:32;;;;;;;2.60;0.50;;;;;;;14.22;40.15;100308.44;1695516;83;21161;-52
2022/04/30 10:29:13;;;;;;;2.33;0.47;;;;;;;14.22;40.15;100308.44;1697713;83;21585;-52
2022/04/30 10:31:44;;;;;;;1.00;0.40;;;;;;;14.05;40.55;100304.89;1699207;83;21134;-52
2022/04/30 10:34:11;;;;;;;1.47;0.40;;;;;;;13.92;41.21;100307.40;1698094;83;21774;-51
2022/04/30 10:36:39;;;;;;;0.62;0.37;;;;;;;13.84;41.21;100313.70;1700811;83;20983;-51
2022/04/30 10:39:13;;;;;;;2.72;0.50;;;;;;;13.68;41.37;100305.98;1698231;83;21572;-51
2022/04/30 10:41:43;;;;;;;2.85;0.40;;;;;;;13.68;41.37;100305.98;1697558;83;21125;-51
2022/04/30 10:44:12;;;;;;;2.33;0.50;;;;;;;13.68;41.12;100311.39;1697711;83;21011;-51
2022/04/30 10:46:40;;;;;;;0.88;0.60;;;;;;;13.62;40.58;100309.86;1701934;83;21205;-52
2022/04/30 10:49:06;;;;;;;1.47;0.60;;;;;;;13.58;41.20;100314.58;1698772;83;21003;-51
2022/04/30 10:51:42;;;;;;;0.88;0.57;;;;;;;13.56;41.28;100312.89;1698481;83;21086;-51
2022/04/30 10:54:18;;;;;;;1.70;0.50;;;;;;;13.53;41.04;100317.09;1699792;83;21129;-51
2022/04/30 10:56:46;;;;;;;0.70;0.50;;;;;;;13.51;41.19;100306.38;1664896;84;21106;-50
2022/04/30 10:59:22;;;;;;;0.72;0.35;;;;;;;13.49;41.31;100313.70;1665643;85;22010;-51
2022/04/30 11:01:49;;;;;;;4.12;0.30;;;;;;;13.49;39.76;100319.58;1664442;85;21026;-52
2022/04/30 11:04:17;;;;;;;1.37;0.30;;;;;;;13.45;39.81;100318.84;1665673;84;21616;-53
2022/04/30 11:06:44;;;;;;;0.62;0.25;;;;;;;13.44;40.43;100313.55;1697856;83;21066;-51
2022/04/30 11:09:10;;;;;;;1.12;0.40;;;;;;;13.45;40.28;100322.91;1697408;83;21058;-50
2022/04/30 11:11:37;;;;;;;0.30;0.20;;;;;;;13.46;39.82;100315.66;1699982;83;21415;-52
2022/04/30 11:14:09;;;;;;;1.25;0.40;;;;;;;13.47;39.92;100320.12;1696531;83;21597;-51
2022/04/30 11:16:41;;;;;;;0.60;0.42;;;;;;;13.49;39.14;100315.05;1700502;83;21073;-51
2022/04/30 11:19:10;;;;;;;0.75;0.40;;;;;;;13.53;38.88;100315.75;1703931;83;21026;-52
2022/04/30 11:21:44;;;;;;;0.68;0.40;;;;;;;13.53;39.35;100312.56;1707836;83;21069;-51
2022/04/30 11:24:11;;;;;;;0.82;0.40;;;;;;;13.57;39.38;100310.12;1704785;83;21156;-53
2022/04/30 11:26:42;;;;;;;1.00;0.30;;;;;;;13.62;39.02;100312.09;1708083;83;21109;-52
2022/04/30 11:29:13;;;;;;;0.60;0.40;;;;;;;13.69;39.04;100312.67;1707879;82;21042;-50
2022/04/30 11:31:42;;;;;;;1.35;0.40;;;;;;;13.75;38.91;100310.11;1707506;83;22278;-50
2022/04/30 11:34:15;;;;;;;1.30;0.40;;;;;;;13.82;37.73;100306.13;1705264;83;21627;-51
2022/04/30 11:36:51;;;;;;;1.25;0.30;;;;;;;13.86;38.15;100302.31;1705131;83;22156;-50
2022/04/30 11:39:18;;;;;;;2.90;0.30;;;;;;;13.93;37.93;100296.97;1706168;82;21571;-51
2022/04/30 11:41:52;;;;;;;0.90;0.20;;;;;;;14.00;37.37;100292.98;1707907;83;21554;-52
2022/04/30 11:44:22;;;;;;;0.65;0.30;;;;;;;14.11;37.29;100289.22;1705669;83;21093;-51
2022/04/30 11:46:53;;;;;;;0.50;0.30;;;;;;;14.24;37.69;100283.52;1705565;83;21105;-53
2022/04/30 11:49:22;;;;;;;1.47;0.33;;;;;;;14.37;36.67;100285.93;1701040;83;22673;-51
2022/04/30 11:51:50;;;;;;;0.60;0.40;;;;;;;14.48;36.53;100275.89;1707396;83;21465;-52
2022/04/30 11:54:20;;;;;;;0.55;0.40;;;;;;;14.55;36.29;100274.58;1705238;83;21049;-53
2022/04/30 11:56:47;;;;;;;1.62;0.40;;;;;;;14.62;36.29;100279.20;1705029;82;21049;-53
2022/04/30 11:59:13;;;;;;;1.00;0.42;;;;;;;14.67;36.23;100285.22;1704418;83;21049;-50
2022/04/30 12:01:42;;;;;;;0.60;0.42;;;;;;;14.69;35.73;100272.47;1706608;83;21220;-51
2022/04/30 12:04:14;;;;;;;0.53;0.40;;;;;;;14.71;35.66;100266.02;1707070;83;22457;-51
2022/04/30 12:06:45;;;;;;;0.60;0.40;;;;;;;14.73;36.13;100264.55;1707379;83;20934;-52
2022/04/30 12:09:15;;;;;;;1.17;0.30;;;;;;;14.79;36.51;100267.41;1703690;83;21015;-52
2022/04/30 12:11:43;;;;;;;0.50;0.30;;;;;;;14.86;35.95;100272.86;1706087;83;21568;-53